createdAt,value
2024-05-09T00:01:54.976Z,101327.34
2024-05-09T00:06:58.075Z,101329.17
2024-05-09T00:12:01.197Z,101327.54
2024-05-09T00:17:04.328Z,101327.80
2024-05-09T00:22:07.568Z,101325.63
2024-05-09T00:27:12.670Z,101322.73
2024-05-09T00:32:16.240Z,101323.73
2024-05-09T00:37:19.419Z,101330.42
2024-05-09T00:42:22.380Z,101328.95
2024-05-09T00:47:25.631Z,101333.77
2024-05-09T00:52:29.964Z,101332.11
2024-05-09T00:57:33.083Z,101329.11
2024-05-09T01:02:36.199Z,101327.33
2024-05-09T01:07:42.562Z,101327.59
2024-05-09T01:12:45.673Z,101326.45
2024-05-09T01:17:48.986Z,101334.71
2024-05-09T01:22:54.096Z,101331.36
2024-05-09T01:27:57.109Z,101331.11
2024-05-09T01:33:00.231Z,101332.95
2024-05-09T01:38:03.657Z,101337.35
2024-05-09T01:43:08.692Z,101347.34
2024-05-09T01:48:12.865Z,101351.42
2024-05-09T01:53:16.044Z,101351.64
2024-05-09T01:58:19.285Z,101345.95
2024-05-09T02:03:22.491Z,101340.29
2024-05-09T02:08:25.700Z,101345.36
2024-05-09T02:13:28.791Z,101343.45
2024-05-09T02:18:31.849Z,101348.35
2024-05-09T02:23:35.112Z,101343.33
2024-05-09T02:28:38.051Z,101345.44
2024-05-09T02:33:41.256Z,101343.36
2024-05-09T02:38:44.497Z,101340.39
2024-05-09T02:43:47.649Z,101344.23
2024-05-09T02:48:50.908Z,101349.66
2024-05-09T02:53:54.299Z,101345.33
2024-05-09T02:58:57.266Z,101344.66
2024-05-09T03:04:00.266Z,101342.77
2024-05-09T03:09:04.841Z,101349.91
2024-05-09T03:14:08.003Z,101351.84
2024-05-09T03:19:11.126Z,101351.15
2024-05-09T03:24:14.323Z,101349.77
2024-05-09T03:29:17.519Z,101353.59
2024-05-09T03:34:20.716Z,101353.40
2024-05-09T03:39:24.818Z,101355.48
2024-05-09T03:44:28.191Z,101358.80
2024-05-09T03:49:31.394Z,101366.95
2024-05-09T03:54:35.138Z,101365.03
2024-05-09T03:59:38.205Z,101361.90
2024-05-09T04:04:44.749Z,101353.35
2024-05-09T04:09:47.931Z,101353.50
2024-05-09T04:14:51.062Z,101354.70
2024-05-09T04:19:54.271Z,101353.79
2024-05-09T04:24:57.377Z,101354.95
2024-05-09T04:30:00.525Z,101356.41
2024-05-09T04:35:04.390Z,101357.35
2024-05-09T04:40:14.162Z,101358.80
2024-05-09T04:45:23.673Z,101358.70
2024-05-09T04:50:35.437Z,101362.80
2024-05-09T04:55:41.453Z,101360.77
2024-05-09T05:00:44.574Z,101361.52
2024-05-09T05:05:47.739Z,101364.12
2024-05-09T05:10:53.865Z,101363.62
2024-05-09T05:15:58.223Z,101366.12
2024-05-09T05:21:02.016Z,101368.63
2024-05-09T05:26:05.243Z,101373.05
2024-05-09T05:31:08.643Z,101371.23
2024-05-09T05:36:11.956Z,101375.52
2024-05-09T05:41:15.034Z,101368.57
2024-05-09T05:46:19.043Z,101364.77
2024-05-09T05:51:22.103Z,101363.29
2024-05-09T05:56:26.409Z,101364.61
2024-05-09T06:01:30.914Z,101366.15
2024-05-09T06:06:34.014Z,101365.86
2024-05-09T06:11:40.162Z,101364.52
2024-05-09T06:16:43.414Z,101359.88
2024-05-09T06:21:46.375Z,101361.59
2024-05-09T06:26:49.394Z,101365.14
2024-05-09T06:31:52.501Z,101362.98
2024-05-09T06:36:55.343Z,101361.36
2024-05-09T06:41:58.419Z,101362.55
2024-05-09T06:47:01.641Z,101355.27
2024-05-09T06:52:05.022Z,101357.59
2024-05-09T06:57:08.002Z,101355.21
2024-05-09T07:02:10.967Z,101356.35
2024-05-09T07:07:14.063Z,101357.56
2024-05-09T07:12:18.517Z,101355.09
2024-05-09T07:17:21.703Z,101347.54
2024-05-09T07:22:25.495Z,101345.02
2024-05-09T07:27:28.669Z,101341.85
2024-05-09T07:32:32.088Z,101342.27
2024-05-09T07:37:35.045Z,101339.91
2024-05-09T07:42:38.215Z,101335.81
2024-05-09T07:49:11.988Z,101339.02
2024-05-09T07:53:36.215Z,101331.53
2024-05-09T07:58:27.702Z,101338.38
2024-05-09T08:03:31.511Z,101337.45
2024-05-09T08:08:34.623Z,101326.55
2024-05-09T08:13:37.654Z,101325.77
2024-05-09T08:18:41.665Z,101329.38
2024-05-09T08:23:44.706Z,101330.69
2024-05-09T08:28:47.775Z,101323.23
2024-05-09T08:33:55.231Z,101323.38
2024-05-09T08:38:58.468Z,101318.83
2024-05-09T08:44:02.049Z,101315.67
2024-05-09T08:49:05.376Z,101309.80
2024-05-09T08:54:08.742Z,101314.34
2024-05-09T08:59:23.753Z,101311.23
2024-05-09T09:04:28.298Z,101311.80
2024-05-09T09:09:35.097Z,101305.34
2024-05-09T09:14:38.172Z,101299.92
2024-05-09T09:19:43.204Z,101298.58
2024-05-09T09:24:46.153Z,101304.48
2024-05-09T09:29:49.231Z,101302.14
2024-05-09T09:34:52.306Z,101299.24
2024-05-09T09:39:56.014Z,101299.59
2024-05-09T09:45:04.707Z,101294.36
2024-05-09T09:50:14.427Z,101289.92
2024-05-09T09:55:22.472Z,101283.13
2024-05-09T10:00:32.502Z,101283.30
2024-05-09T10:05:37.415Z,101288.80
2024-05-09T10:10:47.124Z,101287.07
2024-05-09T10:15:54.385Z,101283.77
2024-05-09T10:20:59.302Z,101281.38
2024-05-09T10:26:05.219Z,101281.34
2024-05-09T10:31:10.794Z,101279.08
2024-05-09T10:36:18.423Z,101276.61
2024-05-09T10:41:23.200Z,101270.02
2024-05-09T10:46:26.572Z,101264.67
2024-05-09T10:51:30.059Z,101265.91
2024-05-09T10:56:33.183Z,101264.19
2024-05-09T11:01:36.573Z,101256.56
2024-05-09T11:06:40.213Z,101249.77
2024-05-09T11:11:43.285Z,101241.41
2024-05-09T11:16:46.404Z,101237.10
2024-05-09T11:21:52.699Z,101234.27
2024-05-09T11:26:58.037Z,101225.36
2024-05-09T11:32:01.296Z,101215.42
2024-05-09T11:37:04.765Z,101214.02
2024-05-09T11:42:08.678Z,101213.55
2024-05-09T11:47:11.713Z,101206.05
2024-05-09T11:52:14.634Z,101202.84
2024-05-09T11:57:17.716Z,101199.14
2024-05-09T12:02:20.883Z,101192.55
2024-05-09T12:07:24.277Z,101182.03
2024-05-09T12:12:28.400Z,101183.05
2024-05-09T12:17:31.595Z,101176.92
2024-05-09T12:22:34.705Z,101175.30
2024-05-09T12:27:38.899Z,101173.65
2024-05-09T12:32:42.158Z,101173.87
2024-05-09T12:37:45.297Z,101163.35
2024-05-09T12:42:49.576Z,101158.81
2024-05-09T12:47:52.839Z,101153.36
2024-05-09T12:52:56.002Z,101149.20
2024-05-09T12:57:59.574Z,101147.05
2024-05-09T13:03:02.879Z,101143.73
2024-05-09T13:08:07.173Z,101140.96
2024-05-09T13:13:10.899Z,101132.63
2024-05-09T13:18:14.178Z,101133.85
2024-05-09T13:23:17.361Z,101129.88
2024-05-09T13:28:21.315Z,101118.05
2024-05-09T13:33:24.464Z,101114.70
2024-05-09T13:38:27.569Z,101111.30
2024-05-09T13:43:30.621Z,101113.86
2024-05-09T13:48:34.565Z,101105.91
2024-05-09T13:53:37.864Z,101096.64
2024-05-09T13:58:42.086Z,101091.52
2024-05-09T14:03:45.379Z,101087.00
2024-05-09T14:08:48.571Z,101079.59
2024-05-09T14:13:51.440Z,101070.81
2024-05-09T14:18:54.409Z,101064.96
2024-05-09T14:23:57.636Z,101058.89
2024-05-09T14:29:00.728Z,101056.02
2024-05-09T14:34:04.005Z,101054.80
2024-05-09T14:39:07.349Z,101047.64
2024-05-09T14:44:12.480Z,101041.75
2024-05-09T14:49:15.560Z,101026.79
2024-05-09T14:54:18.584Z,101022.51
2024-05-09T14:59:21.536Z,101024.08
2024-05-09T15:04:24.702Z,101019.38
2024-05-09T15:09:35.550Z,101018.20
2024-05-09T15:14:38.605Z,101009.81
2024-05-09T15:19:41.617Z,101004.21
2024-05-09T15:24:46.266Z,101000.42
2024-05-09T15:29:49.251Z,100998.40
2024-05-09T15:34:52.213Z,100992.67
2024-05-09T15:39:55.156Z,100994.85
2024-05-09T15:44:58.184Z,100992.84
2024-05-09T15:50:01.191Z,100990.36
2024-05-09T15:55:05.113Z,100978.02
2024-05-09T16:00:15.236Z,100975.38
2024-05-09T16:05:24.972Z,100962.71
2024-05-09T16:10:32.705Z,100958.67
2024-05-09T16:15:37.197Z,100957.84
2024-05-09T16:20:42.333Z,100958.34
2024-05-09T16:25:47.788Z,100959.12
2024-05-09T16:30:51.586Z,100950.98
2024-05-09T16:35:54.546Z,100951.73
2024-05-09T16:40:57.507Z,100951.05
2024-05-09T16:46:01.297Z,100947.79
2024-05-09T16:51:04.268Z,100948.04
2024-05-09T16:56:07.576Z,100952.35
2024-05-09T17:01:13.376Z,100945.39
2024-05-09T17:06:16.440Z,100944.37
2024-05-09T17:11:19.450Z,100948.32
2024-05-09T17:16:22.814Z,100941.75
2024-05-09T17:21:26.145Z,100947.16
2024-05-09T17:26:30.915Z,100953.66
2024-05-09T17:31:34.053Z,100954.29
2024-05-09T17:36:37.243Z,100948.44
2024-05-09T17:41:40.425Z,100949.06
2024-05-09T17:46:43.722Z,100953.06
2024-05-09T17:51:54.317Z,100956.73
2024-05-09T17:56:58.451Z,100956.83
2024-05-09T18:02:01.769Z,100958.95
2024-05-09T18:07:05.661Z,100960.92
2024-05-09T18:12:08.841Z,100964.40
2024-05-09T18:17:13.357Z,100965.67
2024-05-09T18:22:16.455Z,100975.50
2024-05-09T18:27:19.734Z,100980.73
2024-05-09T18:32:22.848Z,100985.76
2024-05-09T18:37:26.664Z,100988.55
2024-05-09T18:42:29.657Z,100991.45
2024-05-09T18:47:33.873Z,100991.33
2024-05-09T18:52:36.899Z,100996.20
2024-05-09T18:57:39.897Z,100998.23
2024-05-09T19:02:43.039Z,100997.11
2024-05-09T19:07:46.432Z,100998.73
2024-05-09T19:12:49.584Z,101003.58
2024-05-09T19:17:52.852Z,101003.55
2024-05-09T19:22:56.258Z,101004.29
2024-05-09T19:28:08.852Z,101005.16
2024-05-09T19:33:21.047Z,101000.23
2024-05-09T19:38:24.172Z,101005.33
2024-05-09T19:43:27.649Z,101011.73
2024-05-09T19:48:30.652Z,101006.98
2024-05-09T19:53:33.759Z,101005.88
2024-05-09T19:58:36.913Z,101009.92
2024-05-09T20:03:40.063Z,101004.91
2024-05-09T20:08:43.749Z,101011.83
2024-05-09T20:13:46.696Z,101018.04
2024-05-09T20:18:49.948Z,101018.00
2024-05-09T20:23:54.263Z,101018.91
2024-05-09T20:28:57.303Z,101016.32
2024-05-09T20:34:00.317Z,101018.52
2024-05-09T20:39:03.476Z,101019.14
2024-05-09T20:44:37.785Z,101022.30
2024-05-09T20:49:47.131Z,101017.76
2024-05-09T20:54:50.218Z,101013.24
2024-05-09T20:59:53.143Z,101014.71
2024-05-09T21:04:56.242Z,101012.98
2024-05-09T21:09:59.339Z,101013.41
2024-05-09T21:15:02.352Z,101014.44
2024-05-09T21:20:11.420Z,101011.04
2024-05-09T21:25:17.631Z,101009.43
2024-05-09T21:30:31.652Z,101008.77
2024-05-09T21:35:44.541Z,101013.06
2024-05-09T21:40:48.540Z,101012.16
2024-05-09T21:45:51.697Z,101017.98
2024-05-09T21:50:54.720Z,101015.71
2024-05-09T21:55:57.693Z,101013.66
2024-05-09T22:01:00.771Z,101011.95
2024-05-09T22:06:03.895Z,101009.73
2024-05-09T22:11:07.081Z,101007.08
2024-05-09T22:16:10.130Z,101007.38
2024-05-09T22:21:13.115Z,101011.69
2024-05-09T22:26:16.365Z,101006.46
2024-05-09T22:31:19.449Z,101003.55
2024-05-09T22:36:22.540Z,100998.27
2024-05-09T22:41:28.358Z,100999.20
2024-05-09T22:46:31.637Z,101000.05
2024-05-09T22:51:37.692Z,100996.30
2024-05-09T22:56:40.720Z,100997.35
2024-05-09T23:01:43.825Z,100998.29
2024-05-09T23:06:47.197Z,100999.89
2024-05-09T23:11:50.269Z,100996.83
2024-05-09T23:16:53.307Z,100985.22
2024-05-09T23:21:56.451Z,100986.23
2024-05-09T23:26:59.458Z,100978.65
2024-05-09T23:32:04.260Z,100979.63
2024-05-09T23:37:07.282Z,100975.56
2024-05-09T23:42:10.334Z,100978.03
2024-05-09T23:47:13.508Z,100974.25
2024-05-09T23:52:16.702Z,100973.01
2024-05-09T23:57:19.956Z,100971.45
